sensor_id;sensor_type;location;lat;lon;timestamp;P1;durP1;ratioP1;P2;durP2;ratioP2
24383;SDS011;12504;52.870;8.798;2023-02-16T00:01:24;46.58;;;22.48;;
24383;SDS011;12504;52.870;8.798;2023-02-16T00:03:53;46.75;;;22.20;;
24383;SDS011;12504;52.870;8.798;2023-02-16T00:06:20;50.38;;;23.45;;
24383;SDS011;12504;52.870;8.798;2023-02-16T00:08:46;42.03;;;21.25;;
24383;SDS011;12504;52.870;8.798;2023-02-16T00:14:08;39.97;;;20.75;;
24383;SDS011;12504;52.870;8.798;2023-02-16T00:16:35;45.60;;;20.95;;
24383;SDS011;12504;52.870;8.798;2023-02-16T00:19:07;45.38;;;21.20;;
24383;SDS011;12504;52.870;8.798;2023-02-16T00:21:40;42.13;;;20.27;;
24383;SDS011;12504;52.870;8.798;2023-02-16T00:24:05;40.78;;;20.02;;
24383;SDS011;12504;52.870;8.798;2023-02-16T00:26:31;44.10;;;20.85;;
24383;SDS011;12504;52.870;8.798;2023-02-16T00:28:59;47.63;;;23.85;;
24383;SDS011;12504;52.870;8.798;2023-02-16T00:31:25;47.30;;;21.23;;
24383;SDS011;12504;52.870;8.798;2023-02-16T00:33:55;41.35;;;20.23;;
24383;SDS011;12504;52.870;8.798;2023-02-16T00:36:22;40.80;;;21.48;;
24383;SDS011;12504;52.870;8.798;2023-02-16T00:38:48;41.00;;;21.92;;
24383;SDS011;12504;52.870;8.798;2023-02-16T00:41:17;44.88;;;20.38;;
24383;SDS011;12504;52.870;8.798;2023-02-16T00:44:15;44.47;;;21.00;;
24383;SDS011;12504;52.870;8.798;2023-02-16T00:46:45;43.80;;;20.85;;
24383;SDS011;12504;52.870;8.798;2023-02-16T00:49:15;45.38;;;20.48;;
24383;SDS011;12504;52.870;8.798;2023-02-16T00:51:42;43.00;;;21.70;;
24383;SDS011;12504;52.870;8.798;2023-02-16T00:54:08;43.35;;;21.38;;
24383;SDS011;12504;52.870;8.798;2023-02-16T00:56:34;38.13;;;20.30;;
24383;SDS011;12504;52.870;8.798;2023-02-16T00:59:01;45.70;;;21.83;;
24383;SDS011;12504;52.870;8.798;2023-02-16T01:01:29;46.35;;;23.60;;
24383;SDS011;12504;52.870;8.798;2023-02-16T01:03:58;43.80;;;21.02;;
24383;SDS011;12504;52.870;8.798;2023-02-16T01:06:26;45.35;;;23.10;;
24383;SDS011;12504;52.870;8.798;2023-02-16T01:09:12;43.78;;;21.95;;
24383;SDS011;12504;52.870;8.798;2023-02-16T01:11:59;50.50;;;22.33;;
24383;SDS011;12504;52.870;8.798;2023-02-16T01:14:28;44.30;;;21.60;;
24383;SDS011;12504;52.870;8.798;2023-02-16T01:16:57;47.67;;;23.48;;
24383;SDS011;12504;52.870;8.798;2023-02-16T01:19:23;48.65;;;23.42;;
24383;SDS011;12504;52.870;8.798;2023-02-16T01:21:49;39.25;;;22.25;;
24383;SDS011;12504;52.870;8.798;2023-02-16T01:24:15;49.30;;;23.70;;
24383;SDS011;12504;52.870;8.798;2023-02-16T01:26:42;39.83;;;20.45;;
24383;SDS011;12504;52.870;8.798;2023-02-16T01:29:14;45.90;;;23.77;;
24383;SDS011;12504;52.870;8.798;2023-02-16T01:31:41;49.00;;;21.65;;
24383;SDS011;12504;52.870;8.798;2023-02-16T01:34:07;48.00;;;21.77;;
24383;SDS011;12504;52.870;8.798;2023-02-16T01:36:34;46.33;;;22.83;;
24383;SDS011;12504;52.870;8.798;2023-02-16T01:39:05;45.72;;;23.90;;
24383;SDS011;12504;52.870;8.798;2023-02-16T01:44:24;53.95;;;24.80;;
24383;SDS011;12504;52.870;8.798;2023-02-16T01:46:55;48.15;;;23.13;;
24383;SDS011;12504;52.870;8.798;2023-02-16T01:49:29;44.92;;;23.55;;
24383;SDS011;12504;52.870;8.798;2023-02-16T01:51:56;42.72;;;23.23;;
24383;SDS011;12504;52.870;8.798;2023-02-16T01:54:46;47.92;;;23.42;;
24383;SDS011;12504;52.870;8.798;2023-02-16T01:57:22;50.13;;;22.20;;
24383;SDS011;12504;52.870;8.798;2023-02-16T02:11:03;47.00;;;24.77;;
24383;SDS011;12504;52.870;8.798;2023-02-16T02:13:43;50.28;;;23.40;;
24383;SDS011;12504;52.870;8.798;2023-02-16T02:16:21;51.45;;;23.98;;
24383;SDS011;12504;52.870;8.798;2023-02-16T02:18:48;51.42;;;23.25;;
24383;SDS011;12504;52.870;8.798;2023-02-16T02:27:06;48.63;;;24.33;;
24383;SDS011;12504;52.870;8.798;2023-02-16T02:35:37;50.08;;;24.88;;
24383;SDS011;12504;52.870;8.798;2023-02-16T02:38:24;48.83;;;24.70;;
24383;SDS011;12504;52.870;8.798;2023-02-16T02:43:49;45.30;;;23.00;;
24383;SDS011;12504;52.870;8.798;2023-02-16T02:46:29;49.97;;;24.13;;
24383;SDS011;12504;52.870;8.798;2023-02-16T02:48:57;50.83;;;24.10;;
24383;SDS011;12504;52.870;8.798;2023-02-16T02:51:23;50.75;;;24.52;;
24383;SDS011;12504;52.870;8.798;2023-02-16T02:54:00;50.05;;;26.40;;
24383;SDS011;12504;52.870;8.798;2023-02-16T02:56:52;51.78;;;25.45;;
24383;SDS011;12504;52.870;8.798;2023-02-16T02:59:54;57.10;;;26.65;;
24383;SDS011;12504;52.870;8.798;2023-02-16T03:02:42;62.75;;;26.13;;
24383;SDS011;12504;52.870;8.798;2023-02-16T03:05:12;57.08;;;28.35;;
24383;SDS011;12504;52.870;8.798;2023-02-16T03:07:40;50.33;;;26.83;;
24383;SDS011;12504;52.870;8.798;2023-02-16T03:10:11;51.67;;;26.63;;
24383;SDS011;12504;52.870;8.798;2023-02-16T03:13:10;54.20;;;26.67;;
24383;SDS011;12504;52.870;8.798;2023-02-16T03:15:43;59.00;;;27.85;;
24383;SDS011;12504;52.870;8.798;2023-02-16T03:18:12;54.10;;;26.83;;
24383;SDS011;12504;52.870;8.798;2023-02-16T03:20:58;52.00;;;26.30;;
24383;SDS011;12504;52.870;8.798;2023-02-16T03:23:43;60.90;;;29.20;;
24383;SDS011;12504;52.870;8.798;2023-02-16T03:26:29;58.35;;;26.05;;
24383;SDS011;12504;52.870;8.798;2023-02-16T03:29:14;57.03;;;29.60;;
24383;SDS011;12504;52.870;8.798;2023-02-16T03:31:46;65.53;;;29.55;;
24383;SDS011;12504;52.870;8.798;2023-02-16T03:34:16;60.03;;;28.27;;
24383;SDS011;12504;52.870;8.798;2023-02-16T03:36:43;62.55;;;29.67;;
24383;SDS011;12504;52.870;8.798;2023-02-16T03:39:12;58.08;;;28.52;;
24383;SDS011;12504;52.870;8.798;2023-02-16T03:41:42;59.58;;;28.50;;
24383;SDS011;12504;52.870;8.798;2023-02-16T03:44:13;62.33;;;28.83;;
24383;SDS011;12504;52.870;8.798;2023-02-16T03:46:39;65.03;;;31.10;;
24383;SDS011;12504;52.870;8.798;2023-02-16T03:49:04;62.00;;;29.08;;
24383;SDS011;12504;52.870;8.798;2023-02-16T03:51:30;70.55;;;27.02;;
24383;SDS011;12504;52.870;8.798;2023-02-16T03:53:56;57.63;;;28.75;;
24383;SDS011;12504;52.870;8.798;2023-02-16T03:56:21;60.67;;;29.52;;
24383;SDS011;12504;52.870;8.798;2023-02-16T03:58:47;62.65;;;29.08;;
24383;SDS011;12504;52.870;8.798;2023-02-16T04:01:13;63.13;;;31.25;;
24383;SDS011;12504;52.870;8.798;2023-02-16T04:03:39;62.22;;;31.00;;
24383;SDS011;12504;52.870;8.798;2023-02-16T04:06:04;59.60;;;27.40;;
24383;SDS011;12504;52.870;8.798;2023-02-16T04:08:30;60.67;;;28.10;;
24383;SDS011;12504;52.870;8.798;2023-02-16T04:10:56;64.68;;;30.58;;
24383;SDS011;12504;52.870;8.798;2023-02-16T04:13:22;53.58;;;30.63;;
24383;SDS011;12504;52.870;8.798;2023-02-16T04:15:48;63.65;;;30.13;;
24383;SDS011;12504;52.870;8.798;2023-02-16T04:18:14;67.05;;;32.28;;
24383;SDS011;12504;52.870;8.798;2023-02-16T04:20:40;60.58;;;28.90;;
24383;SDS011;12504;52.870;8.798;2023-02-16T04:23:06;61.05;;;30.63;;
24383;SDS011;12504;52.870;8.798;2023-02-16T04:25:31;63.20;;;31.05;;
24383;SDS011;12504;52.870;8.798;2023-02-16T04:27:57;62.47;;;31.92;;
24383;SDS011;12504;52.870;8.798;2023-02-16T04:30:24;60.22;;;31.92;;
24383;SDS011;12504;52.870;8.798;2023-02-16T04:32:52;61.72;;;31.27;;
24383;SDS011;12504;52.870;8.798;2023-02-16T04:35:18;67.90;;;31.73;;
24383;SDS011;12504;52.870;8.798;2023-02-16T04:37:44;65.68;;;31.77;;
24383;SDS011;12504;52.870;8.798;2023-02-16T04:40:10;74.75;;;32.80;;
24383;SDS011;12504;52.870;8.798;2023-02-16T04:45:06;57.40;;;29.52;;
24383;SDS011;12504;52.870;8.798;2023-02-16T04:47:33;66.85;;;33.50;;
24383;SDS011;12504;52.870;8.798;2023-02-16T04:49:58;72.90;;;32.95;;
24383;SDS011;12504;52.870;8.798;2023-02-16T04:52:24;75.53;;;32.75;;
24383;SDS011;12504;52.870;8.798;2023-02-16T04:54:50;68.65;;;30.73;;
24383;SDS011;12504;52.870;8.798;2023-02-16T04:57:16;72.90;;;31.92;;
24383;SDS011;12504;52.870;8.798;2023-02-16T04:59:43;67.50;;;30.75;;
24383;SDS011;12504;52.870;8.798;2023-02-16T05:02:08;62.05;;;33.15;;
24383;SDS011;12504;52.870;8.798;2023-02-16T05:04:34;62.60;;;34.58;;
24383;SDS011;12504;52.870;8.798;2023-02-16T05:07:00;60.03;;;31.58;;
24383;SDS011;12504;52.870;8.798;2023-02-16T05:09:25;74.28;;;33.13;;
24383;SDS011;12504;52.870;8.798;2023-02-16T05:11:51;68.93;;;33.03;;
24383;SDS011;12504;52.870;8.798;2023-02-16T05:14:35;64.45;;;30.42;;
24383;SDS011;12504;52.870;8.798;2023-02-16T05:17:13;69.22;;;33.50;;
24383;SDS011;12504;52.870;8.798;2023-02-16T05:19:44;67.93;;;32.42;;
24383;SDS011;12504;52.870;8.798;2023-02-16T05:22:11;67.53;;;31.67;;
24383;SDS011;12504;52.870;8.798;2023-02-16T05:24:39;72.05;;;35.67;;
24383;SDS011;12504;52.870;8.798;2023-02-16T05:27:06;69.68;;;33.67;;
24383;SDS011;12504;52.870;8.798;2023-02-16T05:29:33;72.38;;;32.60;;
24383;SDS011;12504;52.870;8.798;2023-02-16T05:31:59;73.95;;;34.30;;
24383;SDS011;12504;52.870;8.798;2023-02-16T05:34:25;74.70;;;37.55;;
24383;SDS011;12504;52.870;8.798;2023-02-16T05:36:51;73.57;;;33.78;;
24383;SDS011;12504;52.870;8.798;2023-02-16T05:39:17;68.50;;;34.35;;
24383;SDS011;12504;52.870;8.798;2023-02-16T05:41:43;69.50;;;33.83;;
24383;SDS011;12504;52.870;8.798;2023-02-16T05:44:09;71.63;;;34.05;;
24383;SDS011;12504;52.870;8.798;2023-02-16T05:46:35;72.82;;;34.13;;
24383;SDS011;12504;52.870;8.798;2023-02-16T05:49:03;71.38;;;34.53;;
24383;SDS011;12504;52.870;8.798;2023-02-16T05:51:33;68.38;;;35.35;;
24383;SDS011;12504;52.870;8.798;2023-02-16T05:53:59;72.40;;;31.67;;
24383;SDS011;12504;52.870;8.798;2023-02-16T05:56:26;81.57;;;37.47;;
24383;SDS011;12504;52.870;8.798;2023-02-16T05:58:52;69.30;;;35.30;;
24383;SDS011;12504;52.870;8.798;2023-02-16T06:01:19;73.10;;;34.95;;
24383;SDS011;12504;52.870;8.798;2023-02-16T06:03:45;67.93;;;34.42;;
24383;SDS011;12504;52.870;8.798;2023-02-16T06:06:11;70.10;;;34.78;;
24383;SDS011;12504;52.870;8.798;2023-02-16T06:08:37;67.68;;;39.15;;
24383;SDS011;12504;52.870;8.798;2023-02-16T06:11:04;79.05;;;36.80;;
24383;SDS011;12504;52.870;8.798;2023-02-16T06:13:31;70.72;;;36.83;;
24383;SDS011;12504;52.870;8.798;2023-02-16T06:15:57;72.30;;;36.15;;
24383;SDS011;12504;52.870;8.798;2023-02-16T06:18:23;75.20;;;37.67;;
24383;SDS011;12504;52.870;8.798;2023-02-16T06:20:49;73.53;;;35.25;;
24383;SDS011;12504;52.870;8.798;2023-02-16T06:23:14;66.43;;;34.05;;
24383;SDS011;12504;52.870;8.798;2023-02-16T06:25:41;71.15;;;36.20;;
24383;SDS011;12504;52.870;8.798;2023-02-16T06:28:08;71.63;;;38.45;;
24383;SDS011;12504;52.870;8.798;2023-02-16T06:30:34;70.97;;;37.22;;
24383;SDS011;12504;52.870;8.798;2023-02-16T06:33:01;78.75;;;36.42;;
24383;SDS011;12504;52.870;8.798;2023-02-16T06:35:27;76.38;;;36.95;;
24383;SDS011;12504;52.870;8.798;2023-02-16T06:37:53;75.82;;;35.00;;
24383;SDS011;12504;52.870;8.798;2023-02-16T06:40:18;75.40;;;34.50;;
24383;SDS011;12504;52.870;8.798;2023-02-16T06:42:44;73.03;;;34.53;;
24383;SDS011;12504;52.870;8.798;2023-02-16T06:45:10;66.18;;;34.67;;
24383;SDS011;12504;52.870;8.798;2023-02-16T06:47:36;81.95;;;38.42;;
24383;SDS011;12504;52.870;8.798;2023-02-16T06:50:02;70.38;;;36.67;;
24383;SDS011;12504;52.870;8.798;2023-02-16T06:52:30;71.45;;;35.15;;
24383;SDS011;12504;52.870;8.798;2023-02-16T06:54:56;72.68;;;36.63;;
24383;SDS011;12504;52.870;8.798;2023-02-16T06:57:22;73.78;;;35.70;;
24383;SDS011;12504;52.870;8.798;2023-02-16T06:59:48;75.22;;;38.03;;
24383;SDS011;12504;52.870;8.798;2023-02-16T07:02:13;69.55;;;34.30;;
24383;SDS011;12504;52.870;8.798;2023-02-16T07:04:39;67.22;;;34.72;;
24383;SDS011;12504;52.870;8.798;2023-02-16T07:07:05;70.18;;;37.03;;
24383;SDS011;12504;52.870;8.798;2023-02-16T07:09:31;69.30;;;38.30;;
24383;SDS011;12504;52.870;8.798;2023-02-16T07:11:59;72.47;;;35.70;;
24383;SDS011;12504;52.870;8.798;2023-02-16T07:14:25;67.78;;;34.20;;
24383;SDS011;12504;52.870;8.798;2023-02-16T07:16:50;64.03;;;33.28;;
24383;SDS011;12504;52.870;8.798;2023-02-16T07:19:16;71.82;;;40.28;;
24383;SDS011;12504;52.870;8.798;2023-02-16T07:21:42;69.85;;;36.22;;
24383;SDS011;12504;52.870;8.798;2023-02-16T07:24:07;70.25;;;35.78;;
24383;SDS011;12504;52.870;8.798;2023-02-16T07:26:33;72.30;;;36.65;;
24383;SDS011;12504;52.870;8.798;2023-02-16T07:28:59;69.35;;;34.92;;
24383;SDS011;12504;52.870;8.798;2023-02-16T07:31:24;64.70;;;33.80;;
24383;SDS011;12504;52.870;8.798;2023-02-16T07:33:50;65.18;;;34.80;;
24383;SDS011;12504;52.870;8.798;2023-02-16T07:36:16;66.85;;;33.65;;
24383;SDS011;12504;52.870;8.798;2023-02-16T07:38:42;65.78;;;32.03;;
24383;SDS011;12504;52.870;8.798;2023-02-16T07:41:08;63.35;;;32.78;;
24383;SDS011;12504;52.870;8.798;2023-02-16T07:43:34;59.03;;;33.22;;
24383;SDS011;12504;52.870;8.798;2023-02-16T07:46:00;70.97;;;34.25;;
24383;SDS011;12504;52.870;8.798;2023-02-16T07:48:25;73.70;;;33.55;;
24383;SDS011;12504;52.870;8.798;2023-02-16T07:50:51;73.57;;;36.30;;
24383;SDS011;12504;52.870;8.798;2023-02-16T07:53:17;66.55;;;34.38;;
24383;SDS011;12504;52.870;8.798;2023-02-16T07:55:43;66.80;;;33.00;;
24383;SDS011;12504;52.870;8.798;2023-02-16T07:58:10;63.70;;;35.75;;
24383;SDS011;12504;52.870;8.798;2023-02-16T08:00:52;66.40;;;33.22;;
24383;SDS011;12504;52.870;8.798;2023-02-16T08:03:22;66.95;;;32.33;;
24383;SDS011;12504;52.870;8.798;2023-02-16T08:05:48;63.17;;;33.00;;
24383;SDS011;12504;52.870;8.798;2023-02-16T08:08:13;66.38;;;31.98;;
24383;SDS011;12504;52.870;8.798;2023-02-16T08:10:40;58.35;;;31.90;;
24383;SDS011;12504;52.870;8.798;2023-02-16T08:13:05;59.35;;;31.40;;
24383;SDS011;12504;52.870;8.798;2023-02-16T08:15:31;63.33;;;32.08;;
24383;SDS011;12504;52.870;8.798;2023-02-16T08:17:56;56.65;;;31.10;;
24383;SDS011;12504;52.870;8.798;2023-02-16T08:20:22;65.32;;;33.50;;
24383;SDS011;12504;52.870;8.798;2023-02-16T08:22:48;62.25;;;32.58;;
24383;SDS011;12504;52.870;8.798;2023-02-16T08:25:14;64.53;;;34.95;;
24383;SDS011;12504;52.870;8.798;2023-02-16T08:27:40;62.55;;;33.70;;
24383;SDS011;12504;52.870;8.798;2023-02-16T08:30:06;61.00;;;32.28;;
24383;SDS011;12504;52.870;8.798;2023-02-16T08:32:38;66.78;;;33.30;;
24383;SDS011;12504;52.870;8.798;2023-02-16T08:35:05;63.13;;;31.63;;
24383;SDS011;12504;52.870;8.798;2023-02-16T08:37:32;53.15;;;29.38;;
24383;SDS011;12504;52.870;8.798;2023-02-16T08:39:58;54.90;;;29.13;;
24383;SDS011;12504;52.870;8.798;2023-02-16T08:42:25;63.00;;;30.13;;
24383;SDS011;12504;52.870;8.798;2023-02-16T08:44:51;56.42;;;29.83;;
24383;SDS011;12504;52.870;8.798;2023-02-16T08:47:17;57.17;;;30.38;;
24383;SDS011;12504;52.870;8.798;2023-02-16T08:49:44;69.25;;;32.70;;
24383;SDS011;12504;52.870;8.798;2023-02-16T08:52:10;63.00;;;30.40;;
24383;SDS011;12504;52.870;8.798;2023-02-16T08:54:36;56.22;;;29.45;;
24383;SDS011;12504;52.870;8.798;2023-02-16T08:57:03;57.10;;;30.15;;
24383;SDS011;12504;52.870;8.798;2023-02-16T08:59:30;52.95;;;29.38;;
24383;SDS011;12504;52.870;8.798;2023-02-16T09:01:56;59.13;;;30.15;;
24383;SDS011;12504;52.870;8.798;2023-02-16T09:04:23;55.47;;;29.95;;
24383;SDS011;12504;52.870;8.798;2023-02-16T09:06:49;59.55;;;31.05;;
24383;SDS011;12504;52.870;8.798;2023-02-16T09:09:17;47.42;;;28.52;;
24383;SDS011;12504;52.870;8.798;2023-02-16T09:11:43;55.50;;;28.20;;
24383;SDS011;12504;52.870;8.798;2023-02-16T09:14:10;63.55;;;30.83;;
24383;SDS011;12504;52.870;8.798;2023-02-16T09:16:36;62.63;;;29.35;;
24383;SDS011;12504;52.870;8.798;2023-02-16T09:19:08;48.15;;;29.00;;
24383;SDS011;12504;52.870;8.798;2023-02-16T09:21:33;56.03;;;29.95;;
24383;SDS011;12504;52.870;8.798;2023-02-16T09:24:02;50.90;;;30.17;;
24383;SDS011;12504;52.870;8.798;2023-02-16T09:26:30;56.47;;;30.35;;
24383;SDS011;12504;52.870;8.798;2023-02-16T09:28:56;59.00;;;30.90;;
24383;SDS011;12504;52.870;8.798;2023-02-16T09:31:24;65.10;;;31.23;;
24383;SDS011;12504;52.870;8.798;2023-02-16T09:33:54;54.42;;;29.98;;
24383;SDS011;12504;52.870;8.798;2023-02-16T09:36:28;59.85;;;31.23;;
24383;SDS011;12504;52.870;8.798;2023-02-16T09:38:54;60.72;;;32.22;;
24383;SDS011;12504;52.870;8.798;2023-02-16T09:41:23;53.63;;;29.60;;
24383;SDS011;12504;52.870;8.798;2023-02-16T09:46:48;60.45;;;31.63;;
24383;SDS011;12504;52.870;8.798;2023-02-16T09:49:20;50.65;;;28.52;;
24383;SDS011;12504;52.870;8.798;2023-02-16T09:51:48;54.40;;;29.45;;
24383;SDS011;12504;52.870;8.798;2023-02-16T09:54:22;52.13;;;27.40;;
24383;SDS011;12504;52.870;8.798;2023-02-16T09:57:06;57.38;;;28.58;;
24383;SDS011;12504;52.870;8.798;2023-02-16T09:59:40;58.28;;;31.20;;
24383;SDS011;12504;52.870;8.798;2023-02-16T10:02:21;60.63;;;31.02;;
24383;SDS011;12504;52.870;8.798;2023-02-16T10:05:40;62.85;;;30.58;;
24383;SDS011;12504;52.870;8.798;2023-02-16T10:10:26;61.20;;;31.65;;
24383;SDS011;12504;52.870;8.798;2023-02-16T10:13:07;59.72;;;30.15;;
24383;SDS011;12504;52.870;8.798;2023-02-16T10:15:43;60.35;;;30.65;;
24383;SDS011;12504;52.870;8.798;2023-02-16T10:18:52;58.53;;;29.25;;
24383;SDS011;12504;52.870;8.798;2023-02-16T10:21:02;56.00;;;30.13;;
24383;SDS011;12504;52.870;8.798;2023-02-16T10:23:36;60.38;;;30.20;;
24383;SDS011;12504;52.870;8.798;2023-02-16T10:26:29;60.67;;;30.65;;
24383;SDS011;12504;52.870;8.798;2023-02-16T10:29:02;51.65;;;26.73;;
24383;SDS011;12504;52.870;8.798;2023-02-16T10:31:38;59.95;;;30.95;;
24383;SDS011;12504;52.870;8.798;2023-02-16T10:34:13;57.35;;;31.13;;
24383;SDS011;12504;52.870;8.798;2023-02-16T10:42:33;50.83;;;29.85;;
24383;SDS011;12504;52.870;8.798;2023-02-16T10:48:07;63.08;;;29.60;;
24383;SDS011;12504;52.870;8.798;2023-02-16T10:50:38;61.42;;;32.17;;
24383;SDS011;12504;52.870;8.798;2023-02-16T10:53:12;51.40;;;29.15;;
24383;SDS011;12504;52.870;8.798;2023-02-16T10:55:39;58.25;;;31.15;;
24383;SDS011;12504;52.870;8.798;2023-02-16T10:58:04;59.88;;;31.80;;
24383;SDS011;12504;52.870;8.798;2023-02-16T11:00:49;58.47;;;31.60;;
24383;SDS011;12504;52.870;8.798;2023-02-16T11:03:23;57.03;;;29.55;;
24383;SDS011;12504;52.870;8.798;2023-02-16T11:05:52;60.97;;;30.13;;
24383;SDS011;12504;52.870;8.798;2023-02-16T11:08:18;58.65;;;31.88;;
24383;SDS011;12504;52.870;8.798;2023-02-16T11:10:47;63.35;;;31.85;;
24383;SDS011;12504;52.870;8.798;2023-02-16T11:13:29;64.00;;;31.73;;
24383;SDS011;12504;52.870;8.798;2023-02-16T11:16:04;58.90;;;30.92;;
24383;SDS011;12504;52.870;8.798;2023-02-16T11:18:39;62.85;;;33.63;;
24383;SDS011;12504;52.870;8.798;2023-02-16T11:21:08;64.85;;;34.80;;
24383;SDS011;12504;52.870;8.798;2023-02-16T11:23:36;63.47;;;31.75;;
24383;SDS011;12504;52.870;8.798;2023-02-16T11:31:20;56.42;;;32.42;;
24383;SDS011;12504;52.870;8.798;2023-02-16T11:33:59;57.78;;;31.25;;
24383;SDS011;12504;52.870;8.798;2023-02-16T11:36:31;58.78;;;31.05;;
24383;SDS011;12504;52.870;8.798;2023-02-16T11:39:24;61.30;;;32.17;;
24383;SDS011;12504;52.870;8.798;2023-02-16T11:41:55;50.72;;;29.42;;
24383;SDS011;12504;52.870;8.798;2023-02-16T11:44:34;56.47;;;33.13;;
24383;SDS011;12504;52.870;8.798;2023-02-16T11:47:50;64.15;;;29.92;;
24383;SDS011;12504;52.870;8.798;2023-02-16T11:52:45;54.47;;;27.90;;
24383;SDS011;12504;52.870;8.798;2023-02-16T11:55:35;58.28;;;30.63;;
24383;SDS011;12504;52.870;8.798;2023-02-16T12:00:47;55.13;;;29.42;;
24383;SDS011;12504;52.870;8.798;2023-02-16T12:11:47;59.45;;;29.60;;
24383;SDS011;12504;52.870;8.798;2023-02-16T12:14:37;48.83;;;26.48;;
24383;SDS011;12504;52.870;8.798;2023-02-16T12:17:17;66.75;;;32.40;;
24383;SDS011;12504;52.870;8.798;2023-02-16T12:22:47;60.60;;;29.60;;
24383;SDS011;12504;52.870;8.798;2023-02-16T12:25:19;50.20;;;26.38;;
24383;SDS011;12504;52.870;8.798;2023-02-16T12:28:10;59.28;;;29.08;;
24383;SDS011;12504;52.870;8.798;2023-02-16T12:30:49;56.55;;;29.95;;
24383;SDS011;12504;52.870;8.798;2023-02-16T12:33:26;56.58;;;28.25;;
24383;SDS011;12504;52.870;8.798;2023-02-16T12:39:10;60.70;;;28.63;;
24383;SDS011;12504;52.870;8.798;2023-02-16T12:41:52;50.83;;;28.83;;
24383;SDS011;12504;52.870;8.798;2023-02-16T12:44:39;57.20;;;30.77;;
24383;SDS011;12504;52.870;8.798;2023-02-16T12:47:12;59.65;;;30.23;;
24383;SDS011;12504;52.870;8.798;2023-02-16T12:49:53;59.28;;;32.08;;
24383;SDS011;12504;52.870;8.798;2023-02-16T12:52:30;62.67;;;34.10;;
24383;SDS011;12504;52.870;8.798;2023-02-16T12:55:18;54.65;;;28.50;;
24383;SDS011;12504;52.870;8.798;2023-02-16T12:57:51;60.10;;;30.13;;
24383;SDS011;12504;52.870;8.798;2023-02-16T13:00:40;56.13;;;28.90;;
24383;SDS011;12504;52.870;8.798;2023-02-16T13:12:04;73.32;;;35.15;;
24383;SDS011;12504;52.870;8.798;2023-02-16T13:14:27;59.03;;;33.28;;
24383;SDS011;12504;52.870;8.798;2023-02-16T13:17:01;59.75;;;33.78;;
24383;SDS011;12504;52.870;8.798;2023-02-16T13:19:33;62.22;;;32.50;;
24383;SDS011;12504;52.870;8.798;2023-02-16T13:22:05;64.85;;;33.03;;
24383;SDS011;12504;52.870;8.798;2023-02-16T13:28:02;56.58;;;31.58;;
24383;SDS011;12504;52.870;8.798;2023-02-16T13:33:26;66.43;;;33.42;;
24383;SDS011;12504;52.870;8.798;2023-02-16T13:36:09;68.40;;;31.77;;
24383;SDS011;12504;52.870;8.798;2023-02-16T13:44:27;70.90;;;33.13;;
24383;SDS011;12504;52.870;8.798;2023-02-16T13:46:56;69.95;;;32.58;;
24383;SDS011;12504;52.870;8.798;2023-02-16T13:49:29;69.18;;;32.67;;
24383;SDS011;12504;52.870;8.798;2023-02-16T13:51:56;60.25;;;30.33;;
24383;SDS011;12504;52.870;8.798;2023-02-16T13:56:52;69.05;;;34.00;;
24383;SDS011;12504;52.870;8.798;2023-02-16T14:01:53;62.95;;;32.90;;
24383;SDS011;12504;52.870;8.798;2023-02-16T14:22:36;66.40;;;32.92;;
24383;SDS011;12504;52.870;8.798;2023-02-16T14:25:05;75.20;;;36.78;;
24383;SDS011;12504;52.870;8.798;2023-02-16T14:30:54;60.17;;;34.03;;
24383;SDS011;12504;52.870;8.798;2023-02-16T14:41:00;77.35;;;38.40;;
24383;SDS011;12504;52.870;8.798;2023-02-16T14:43:44;74.13;;;36.97;;
24383;SDS011;12504;52.870;8.798;2023-02-16T14:51:43;72.57;;;35.30;;
24383;SDS011;12504;52.870;8.798;2023-02-16T14:57:31;85.80;;;37.72;;
24383;SDS011;12504;52.870;8.798;2023-02-16T15:00:05;85.38;;;39.10;;
24383;SDS011;12504;52.870;8.798;2023-02-16T15:02:58;82.15;;;38.38;;
24383;SDS011;12504;52.870;8.798;2023-02-16T15:05:26;90.68;;;41.92;;
24383;SDS011;12504;52.870;8.798;2023-02-16T15:08:01;89.70;;;43.72;;
24383;SDS011;12504;52.870;8.798;2023-02-16T15:10:28;92.63;;;39.50;;
24383;SDS011;12504;52.870;8.798;2023-02-16T15:12:54;92.78;;;42.70;;
24383;SDS011;12504;52.870;8.798;2023-02-16T15:15:24;96.78;;;45.15;;
24383;SDS011;12504;52.870;8.798;2023-02-16T15:17:55;100.57;;;44.47;;
24383;SDS011;12504;52.870;8.798;2023-02-16T15:20:31;87.28;;;42.08;;
24383;SDS011;12504;52.870;8.798;2023-02-16T15:23:03;99.35;;;43.80;;
24383;SDS011;12504;52.870;8.798;2023-02-16T15:25:33;81.47;;;40.47;;
24383;SDS011;12504;52.870;8.798;2023-02-16T15:30:57;87.80;;;42.03;;
24383;SDS011;12504;52.870;8.798;2023-02-16T15:35:59;85.45;;;40.25;;
24383;SDS011;12504;52.870;8.798;2023-02-16T15:38:30;86.85;;;43.08;;
24383;SDS011;12504;52.870;8.798;2023-02-16T15:40:59;84.10;;;41.00;;
24383;SDS011;12504;52.870;8.798;2023-02-16T15:43:32;78.75;;;39.60;;
24383;SDS011;12504;52.870;8.798;2023-02-16T15:46:22;88.70;;;41.00;;
24383;SDS011;12504;52.870;8.798;2023-02-16T15:48:56;77.63;;;38.20;;
24383;SDS011;12504;52.870;8.798;2023-02-16T15:51:26;88.32;;;41.85;;
24383;SDS011;12504;52.870;8.798;2023-02-16T15:53:56;86.63;;;40.45;;
24383;SDS011;12504;52.870;8.798;2023-02-16T15:56:44;77.38;;;40.10;;
24383;SDS011;12504;52.870;8.798;2023-02-16T16:02:08;99.40;;;44.42;;
24383;SDS011;12504;52.870;8.798;2023-02-16T16:04:51;75.18;;;39.70;;
24383;SDS011;12504;52.870;8.798;2023-02-16T16:07:40;92.07;;;40.33;;
24383;SDS011;12504;52.870;8.798;2023-02-16T16:10:23;83.82;;;41.67;;
24383;SDS011;12504;52.870;8.798;2023-02-16T16:13:19;86.72;;;42.00;;
24383;SDS011;12504;52.870;8.798;2023-02-16T16:15:50;83.43;;;42.08;;
24383;SDS011;12504;52.870;8.798;2023-02-16T16:21:16;95.15;;;45.90;;
24383;SDS011;12504;52.870;8.798;2023-02-16T16:26:32;84.80;;;41.47;;
24383;SDS011;12504;52.870;8.798;2023-02-16T16:28:59;81.65;;;39.63;;
24383;SDS011;12504;52.870;8.798;2023-02-16T16:36:35;86.20;;;41.42;;
24383;SDS011;12504;52.870;8.798;2023-02-16T16:39:22;79.53;;;44.40;;
24383;SDS011;12504;52.870;8.798;2023-02-16T16:44:29;90.70;;;43.92;;
24383;SDS011;12504;52.870;8.798;2023-02-16T16:47:09;90.88;;;41.30;;
24383;SDS011;12504;52.870;8.798;2023-02-16T16:49:51;86.30;;;39.13;;
24383;SDS011;12504;52.870;8.798;2023-02-16T16:55:00;80.97;;;43.90;;
24383;SDS011;12504;52.870;8.798;2023-02-16T16:57:26;83.75;;;42.47;;
24383;SDS011;12504;52.870;8.798;2023-02-16T16:59:53;76.78;;;38.22;;
24383;SDS011;12504;52.870;8.798;2023-02-16T17:02:19;86.38;;;41.80;;
24383;SDS011;12504;52.870;8.798;2023-02-16T17:04:45;78.97;;;39.53;;
24383;SDS011;12504;52.870;8.798;2023-02-16T17:07:10;81.97;;;43.13;;
24383;SDS011;12504;52.870;8.798;2023-02-16T17:09:36;82.45;;;43.03;;
24383;SDS011;12504;52.870;8.798;2023-02-16T17:12:02;85.78;;;42.80;;
24383;SDS011;12504;52.870;8.798;2023-02-16T17:14:27;92.13;;;43.72;;
24383;SDS011;12504;52.870;8.798;2023-02-16T17:16:53;89.25;;;44.38;;
24383;SDS011;12504;52.870;8.798;2023-02-16T17:19:20;87.95;;;41.38;;
24383;SDS011;12504;52.870;8.798;2023-02-16T17:21:47;91.95;;;44.00;;
24383;SDS011;12504;52.870;8.798;2023-02-16T17:24:14;95.78;;;46.92;;